createdAt,value
2019-03-26T04:17:01.388Z,0.1
2019-03-26T04:19:01.114Z,0.2
2019-03-26T04:20:01.076Z,0.3
2019-03-26T04:22:01.354Z,0.4
2019-03-26T04:23:01.103Z,0.5
2019-03-26T04:25:01.103Z,0.7
2019-03-26T04:26:01.098Z,0.8
2019-03-26T04:27:01.358Z,0.9
2019-03-26T04:28:01.092Z,1.1
2019-03-26T04:29:01.076Z,1.4
2019-03-26T04:30:01.104Z,1.7
2019-03-26T04:31:01.111Z,2.1
2019-03-26T04:32:01.254Z,2.5
2019-03-26T04:33:01.107Z,3.0
2019-03-26T04:34:01.079Z,3.6
2019-03-26T04:35:01.111Z,4.3
2019-03-26T04:36:01.065Z,5.1
2019-03-26T04:37:01.283Z,5.9
2019-03-26T04:38:01.080Z,6.9
2019-03-26T04:39:01.105Z,7.9
2019-03-26T04:40:01.107Z,9.3
2019-03-26T04:41:01.111Z,11.2
2019-03-26T04:42:01.351Z,13.7
2019-03-26T04:43:01.115Z,16.6
2019-03-26T04:44:01.076Z,19.9
2019-03-26T04:45:01.077Z,23.3
2019-03-26T04:46:01.077Z,27.7
2019-03-26T04:47:01.259Z,33.7
2019-03-26T04:48:01.079Z,41.3
2019-03-26T04:49:01.074Z,50.6
2019-03-26T04:50:01.118Z,61.9
2019-03-26T04:51:01.073Z,75.2
2019-03-26T04:52:01.350Z,91.1
2019-03-26T04:53:01.107Z,108.7
2019-03-26T04:54:01.073Z,129.3
2019-03-26T04:55:01.187Z,151.9
2019-03-26T04:56:01.110Z,179.3
2019-03-26T04:57:01.295Z,213.5
2019-03-26T04:58:01.123Z,254.8
2019-03-26T04:59:01.141Z,303.0
2019-03-26T05:00:01.137Z,357.1
2019-03-26T05:01:01.113Z,422.5
2019-03-26T05:02:01.318Z,496.3
2019-03-26T05:03:02.161Z,576.1
2019-03-26T05:04:01.106Z,663.1
2019-03-26T05:05:01.076Z,761.5
2019-03-26T05:07:01.309Z,873.9
2019-03-26T05:08:01.067Z,986.9
2019-03-26T05:09:01.095Z,1116.1
2019-03-26T05:10:01.100Z,1250.6
2019-03-26T05:11:01.065Z,1404.2
2019-03-26T05:12:02.088Z,1579.5
2019-03-26T05:13:01.103Z,1763.8
2019-03-26T05:14:01.065Z,1953.6
2019-03-26T05:15:01.102Z,2149.9
2019-03-26T05:16:01.099Z,2379.2
2019-03-26T05:17:01.249Z,2632.1
2019-03-26T05:18:01.109Z,2872.8
2019-03-26T05:19:01.063Z,3115.5
2019-03-26T05:20:01.102Z,3385.3
2019-03-26T05:21:01.102Z,3685.1
2019-03-26T05:22:01.248Z,3989.5
2019-03-26T05:23:01.101Z,4312.0
2019-03-26T05:24:01.102Z,4654.5
2019-03-26T05:25:01.069Z,5037.9
2019-03-26T05:26:01.100Z,5418.4
2019-03-26T05:27:01.462Z,5795.7
2019-03-26T05:28:01.101Z,6148.5
2019-03-26T05:29:01.074Z,6502.0
2019-03-26T05:30:01.083Z,6855.6
2019-03-26T05:31:01.108Z,7202.9
2019-03-26T05:32:01.268Z,7518.5
2019-03-26T05:33:01.871Z,7820.8
2019-03-26T05:34:01.099Z,8175.6
2019-03-26T05:35:01.168Z,8510.5
2019-03-26T05:36:01.096Z,8852.3
2019-03-26T05:37:01.251Z,9245.3
2019-03-26T05:38:01.069Z,9613.0
2019-03-26T05:39:01.105Z,9963.5
2019-03-26T05:40:01.097Z,10352.5
2019-03-26T05:41:01.114Z,10757.6
2019-03-26T05:42:01.257Z,10955.8
2019-03-26T05:43:01.103Z,11148.0
2019-03-26T05:44:01.077Z,11501.1
2019-03-26T05:45:01.121Z,12081.2
2019-03-26T05:46:01.175Z,12717.8
2019-03-26T05:47:01.760Z,13304.7
2019-03-26T05:48:06.292Z,13948.4
2019-03-26T05:49:01.108Z,14520.9
2019-03-26T05:50:01.111Z,15076.1
2019-03-26T05:51:01.425Z,15531.7
2019-03-26T05:52:01.290Z,15899.6
2019-03-26T05:53:01.074Z,16341.7
2019-03-26T05:54:01.099Z,16777.3
2019-03-26T05:55:01.112Z,17067.7
2019-03-26T05:56:01.078Z,17349.3
2019-03-26T05:57:01.347Z,17935.7
2019-03-26T05:58:01.074Z,18602.5
2019-03-26T05:59:01.111Z,19094.7
2019-03-26T06:00:01.109Z,19362.0
2019-03-26T06:01:01.117Z,19381.0
2019-03-26T06:02:13.358Z,19428.9
2019-03-26T06:03:01.113Z,19531.5
2019-03-26T06:04:01.114Z,19611.4
2019-03-26T06:05:01.116Z,19709.3
2019-03-26T06:06:01.071Z,19742.1
2019-03-26T06:08:01.094Z,19945.5
2019-03-26T06:09:01.098Z,20196.2
2019-03-26T06:10:01.067Z,20530.4
2019-03-26T06:11:01.063Z,21171.9
2019-03-26T06:12:01.340Z,21720.5
2019-03-26T06:13:01.068Z,22185.5
2019-03-26T06:14:01.074Z,22622.4
2019-03-26T06:15:01.069Z,23295.6
2019-03-26T06:16:01.101Z,24386.4
2019-03-26T06:17:01.345Z,26052.1
2019-03-26T06:18:01.096Z,27321.9
2019-03-26T06:19:01.101Z,28157.2
2019-03-26T06:20:01.111Z,28930.7
2019-03-26T06:21:01.083Z,29565.0
2019-03-26T06:22:01.288Z,30366.1
2019-03-26T06:23:01.115Z,31188.1
2019-03-26T06:24:01.112Z,32005.4
2019-03-26T06:25:01.121Z,32903.0
2019-03-26T06:26:01.082Z,33580.0
2019-03-26T06:27:01.350Z,34845.1
2019-03-26T06:28:01.079Z,36662.8
2019-03-26T06:29:01.398Z,38288.4
2019-03-26T06:30:01.105Z,38799.0
2019-03-26T06:32:01.245Z,39791.9
2019-03-26T06:33:01.102Z,40449.1
2019-03-26T06:34:01.093Z,41171.1
2019-03-26T06:35:01.064Z,42032.6
2019-03-26T06:36:01.097Z,42050.1
2019-03-26T06:37:01.243Z,42072.9
2019-03-26T06:38:01.097Z,42457.2
2019-03-26T06:39:01.096Z,43114.6
2019-03-26T06:40:01.394Z,43840.1
2019-03-26T06:41:01.066Z,45700.9
2019-03-26T06:42:01.283Z,47532.5
2019-03-26T06:43:01.121Z,48842.9
2019-03-26T06:44:01.064Z,48975.9
2019-03-26T06:45:01.108Z,48185.7
2019-03-26T06:46:01.097Z,48422.5
2019-03-26T06:47:01.312Z,48000.6
2019-03-26T06:48:04.056Z,48613.7
2019-03-26T06:49:01.104Z,48170.9
2019-03-26T06:50:01.107Z,47866.3
2019-03-26T06:51:06.100Z,49162.8
2019-03-26T06:52:01.313Z,51339.1
2019-03-26T06:53:01.070Z,53017.1
2019-03-26T06:54:01.066Z,53717.4
2019-03-26T06:55:01.075Z,53722.5
2019-03-26T06:56:01.120Z,52590.3
2019-03-26T06:57:01.222Z,51486.4
2019-03-26T06:58:01.072Z,51219.9
2019-03-26T06:59:01.134Z,51806.3
2019-03-26T07:00:01.101Z,53325.5
2019-03-26T07:01:06.075Z,54841.0
2019-03-26T07:02:01.239Z,56099.1
2019-03-26T07:03:01.067Z,56242.1
2019-03-26T07:04:01.184Z,57788.5
2019-03-26T07:05:01.106Z,59395.9
2019-03-26T07:06:01.194Z,60305.0
2019-03-26T07:07:01.317Z,60323.1
2019-03-26T07:08:01.159Z,60588.3
2019-03-26T07:09:01.901Z,61382.4
2019-03-26T07:10:01.077Z,62690.5
2019-03-26T07:11:01.151Z,63822.8
2019-03-26T07:12:01.324Z,64926.7
2019-03-26T07:13:01.112Z,65193.2
2019-03-26T07:15:01.078Z,65337.8
2019-03-26T07:18:01.070Z,65224.1
2019-03-26T07:19:01.097Z,64412.7
2019-03-26T07:20:01.070Z,64165.0
2019-03-26T07:22:01.252Z,64199.5
2019-03-26T07:23:01.076Z,64362.2
2019-03-26T07:30:01.115Z,64362.2
2019-03-26T07:33:01.117Z,64475.9
2019-03-26T07:34:01.542Z,65287.3
2019-03-26T07:35:01.176Z,65535.0
2019-03-26T07:45:01.243Z,65526.5
2019-03-26T08:00:01.110Z,65526.5
2019-03-26T08:01:01.076Z,65535.0
2019-03-26T08:15:01.119Z,65535.0
2019-03-26T08:30:01.110Z,65535.0
2019-03-26T08:44:01.108Z,65515.9
2019-03-26T08:45:01.125Z,65515.9
2019-03-26T08:59:01.114Z,65535.0
2019-03-26T09:00:01.114Z,65535.0
2019-03-26T09:15:01.381Z,65535.0
2019-03-26T09:30:01.084Z,65535.0
2019-03-26T09:45:01.646Z,65535.0
2019-03-26T10:00:01.068Z,65535.0
2019-03-26T10:15:01.280Z,65535.0
2019-03-26T10:30:01.113Z,65535.0
2019-03-26T10:45:01.395Z,65535.0
2019-03-26T11:01:01.375Z,65535.0
2019-03-26T11:15:01.350Z,65535.0
2019-03-26T11:30:01.399Z,65535.0
2019-03-26T11:45:01.483Z,65535.0
2019-03-26T12:00:01.261Z,65535.0
2019-03-26T12:15:01.356Z,65535.0
2019-03-26T12:30:01.353Z,65535.0
2019-03-26T12:45:01.459Z,65535.0
2019-03-26T13:00:01.333Z,65535.0
2019-03-26T13:15:01.436Z,65535.0
2019-03-26T13:16:01.071Z,65425.8
2019-03-26T13:17:01.107Z,65253.9
2019-03-26T13:30:04.075Z,65253.9
2019-03-26T13:31:01.065Z,65363.1
2019-03-26T13:32:01.071Z,65535.0
2019-03-26T13:45:01.363Z,65535.0
2019-03-26T14:00:01.285Z,65535.0
2019-03-26T14:15:01.429Z,65535.0
2019-03-26T14:30:01.287Z,65535.0
2019-03-26T14:45:01.331Z,65535.0
2019-03-26T15:00:01.315Z,65535.0
2019-03-26T15:15:01.458Z,65535.0
2019-03-26T15:30:01.373Z,65535.0
2019-03-26T15:39:01.316Z,65524.5
2019-03-26T15:40:01.133Z,65452.8
2019-03-26T15:45:01.447Z,65452.8
2019-03-26T15:50:01.289Z,64887.8
2019-03-26T15:51:01.074Z,64368.2
2019-03-26T15:52:01.109Z,64199.5
2019-03-26T15:54:06.183Z,64210.0
2019-03-26T15:55:01.358Z,64281.7
2019-03-26T16:00:01.315Z,64281.7
2019-03-26T16:05:01.344Z,64846.7
2019-03-26T16:06:01.109Z,65366.3
2019-03-26T16:07:01.080Z,65414.4
2019-03-26T16:08:01.117Z,65235.4
2019-03-26T16:09:01.116Z,64904.1
2019-03-26T16:10:01.292Z,64611.1
2019-03-26T16:11:01.112Z,64357.1
2019-03-26T16:12:01.120Z,63895.1
2019-03-26T16:13:01.116Z,63182.3
2019-03-26T16:14:01.114Z,62234.3
2019-03-26T16:15:01.262Z,61154.6
2019-03-26T16:16:01.108Z,59862.3
2019-03-26T16:17:01.079Z,58374.4
2019-03-26T16:19:01.106Z,56712.5
2019-03-26T16:20:01.290Z,54976.5
2019-03-26T16:21:01.101Z,53273.9
2019-03-26T16:22:01.105Z,51866.4
2019-03-26T16:23:02.078Z,50697.3
2019-03-26T16:24:01.091Z,49403.9
2019-03-26T16:25:01.320Z,48392.3
2019-03-26T16:26:01.104Z,47675.7
2019-03-26T16:27:01.100Z,46799.9
2019-03-26T16:28:01.093Z,46033.7
2019-03-26T16:29:01.103Z,45480.2
2019-03-26T16:30:01.319Z,45182.2
2019-03-26T16:31:01.136Z,44846.8
2019-03-26T16:32:01.073Z,44543.2
2019-03-26T16:33:01.102Z,44326.8
2019-03-26T16:34:01.106Z,44258.0
2019-03-26T16:35:01.257Z,44254.5
2019-03-26T16:36:01.081Z,44225.6
2019-03-26T16:37:01.099Z,43952.1
2019-03-26T16:38:01.072Z,43530.1
2019-03-26T16:39:01.106Z,43136.6
2019-03-26T16:40:01.311Z,42370.2
2019-03-26T16:41:01.065Z,41028.8
2019-03-26T16:42:01.069Z,39619.0
2019-03-26T16:43:01.103Z,38165.9
2019-03-26T16:44:01.100Z,36637.7
2019-03-26T16:45:01.321Z,34963.0
2019-03-26T16:46:01.119Z,33361.9
2019-03-26T16:47:01.106Z,31864.3
2019-03-26T16:48:01.849Z,30373.8
2019-03-26T16:49:01.115Z,28835.9
2019-03-26T16:50:01.259Z,27253.7
2019-03-26T16:51:01.118Z,25651.5
2019-03-26T16:52:01.117Z,23976.7
2019-03-26T16:53:01.118Z,22337.3
2019-03-26T16:54:01.083Z,20819.8
2019-03-26T16:55:01.395Z,19541.9
2019-03-26T16:56:06.121Z,18436.5
2019-03-26T16:57:01.112Z,17430.1
2019-03-26T16:58:01.113Z,16522.1
2019-03-26T16:59:01.076Z,15702.1
2019-03-26T17:00:01.641Z,14915.8
2019-03-26T17:01:06.190Z,14250.9
2019-03-26T17:02:01.112Z,13724.7
2019-03-26T17:04:01.164Z,13268.1
2019-03-26T17:05:01.445Z,12869.2
2019-03-26T17:06:01.135Z,12590.3
2019-03-26T17:07:01.100Z,12409.8
2019-03-26T17:08:01.098Z,12231.3
2019-03-26T17:09:01.065Z,12001.2
2019-03-26T17:10:01.313Z,11747.9
2019-03-26T17:11:01.172Z,11511.8
2019-03-26T17:12:03.309Z,11351.4
2019-03-26T17:13:01.067Z,11256.5
2019-03-26T17:14:01.099Z,11153.6
2019-03-26T17:15:01.318Z,11003.2
2019-03-26T17:16:01.259Z,10877.9
2019-03-26T17:17:01.107Z,10675.6
2019-03-26T17:18:01.129Z,10368.1
2019-03-26T17:19:01.213Z,10059.5
2019-03-26T17:20:01.284Z,9736.3
2019-03-26T17:21:06.180Z,9316.0
2019-03-26T17:22:01.105Z,8767.4
2019-03-26T17:23:01.111Z,8206.7
2019-03-26T17:24:01.174Z,7665.8
2019-03-26T17:25:01.397Z,7173.3
2019-03-26T17:26:01.141Z,6671.8
2019-03-26T17:27:02.000Z,6150.4
2019-03-26T17:28:01.103Z,5631.7
2019-03-26T17:29:01.065Z,5172.3
2019-03-26T17:30:01.394Z,4800.2
2019-03-26T17:31:01.136Z,4460.5
2019-03-26T17:32:01.107Z,4176.1
2019-03-26T17:33:01.114Z,3943.5
2019-03-26T17:34:01.065Z,3747.8
2019-03-26T17:35:01.461Z,3597.6
2019-03-26T17:36:01.143Z,3475.3
2019-03-26T17:37:02.239Z,3378.7
2019-03-26T17:38:01.531Z,3299.6
2019-03-26T17:39:01.168Z,3235.5
2019-03-26T17:40:01.308Z,3163.7
2019-03-26T17:41:01.273Z,3069.3
2019-03-26T17:42:01.071Z,2971.2
2019-03-26T17:43:01.111Z,2879.6
2019-03-26T17:44:01.106Z,2771.4
2019-03-26T17:45:01.322Z,2639.0
2019-03-26T17:46:01.146Z,2525.6
2019-03-26T17:47:01.106Z,2398.4
2019-03-26T17:48:01.107Z,2256.6
2019-03-26T17:49:01.111Z,2105.2
2019-03-26T17:50:01.319Z,1939.8
2019-03-26T17:51:01.237Z,1777.3
2019-03-26T17:52:01.176Z,1625.7
2019-03-26T17:53:01.087Z,1479.3
2019-03-26T17:54:01.074Z,1334.7
2019-03-26T17:55:01.325Z,1197.5
2019-03-26T17:56:01.114Z,1072.2
2019-03-26T17:57:01.087Z,960.3
2019-03-26T17:58:01.177Z,859.4
2019-03-26T17:59:01.079Z,766.1
2019-03-26T18:00:01.359Z,682.5
2019-03-26T18:01:01.104Z,614.1
2019-03-26T18:03:01.224Z,550.9
2019-03-26T18:04:01.102Z,492.8
2019-03-26T18:05:01.214Z,438.6
2019-03-26T18:06:01.062Z,382.5
2019-03-26T18:07:01.060Z,324.7
2019-03-26T18:08:01.100Z,271.2
2019-03-26T18:09:01.102Z,226.5
2019-03-26T18:10:01.287Z,191.3
2019-03-26T18:11:01.099Z,162.9
2019-03-26T18:12:01.101Z,140.3
2019-03-26T18:13:01.103Z,120.9
2019-03-26T18:14:01.101Z,105.3
2019-03-26T18:15:01.271Z,90.4
2019-03-26T18:16:01.102Z,75.6
2019-03-26T18:17:01.071Z,61.3
2019-03-26T18:18:01.100Z,51.2
2019-03-26T18:19:01.101Z,42.5
2019-03-26T18:20:01.286Z,35.5
2019-03-26T18:21:02.115Z,29.6
2019-03-26T18:22:01.379Z,24.5
2019-03-26T18:23:01.102Z,20.5
2019-03-26T18:24:01.071Z,17.3
2019-03-26T18:25:02.317Z,14.6
2019-03-26T18:26:01.074Z,12.5
2019-03-26T18:27:01.138Z,10.9
2019-03-26T18:28:01.107Z,9.7
2019-03-26T18:29:01.096Z,8.5
2019-03-26T18:30:01.316Z,7.5
2019-03-26T18:31:01.098Z,6.6
2019-03-26T18:32:01.080Z,5.8
2019-03-26T18:33:01.142Z,5.2
2019-03-26T18:34:01.095Z,4.6
2019-03-26T18:35:06.243Z,4.0
2019-03-26T18:36:01.077Z,3.5
2019-03-26T18:37:01.167Z,3.0
2019-03-26T18:38:01.104Z,2.6
2019-03-26T18:39:01.112Z,2.3
2019-03-26T18:40:01.327Z,1.9
2019-03-26T18:41:01.103Z,1.6
2019-03-26T18:42:01.102Z,1.3
2019-03-26T18:43:01.098Z,1.1
2019-03-26T18:44:01.095Z,0.9
2019-03-26T18:45:01.323Z,0.8
2019-03-26T18:46:01.098Z,0.7
2019-03-26T18:47:01.065Z,0.5
2019-03-26T18:48:01.106Z,0.4
2019-03-26T18:49:01.077Z,0.3
2019-03-26T18:51:01.066Z,0.2
2019-03-26T18:52:01.097Z,0.1
